Main page
METAR-TAF:

METAR-TAF

Airports :

Algiers, Algeria

Houari Boumediene Airport

latitude: 36-43N, longitude: 003-15E, elevation: 25 m

Current weather observation

The report was made 22 minutes ago, at 05:00 UTC
Wind 1 kt from the Southwest
Temperature 8°C
Humidity 100%
Pressure 1028 hPa
Visibility: 0800 m
Few clouds at a height of 1000 ft
fog

METAR: DAAG 290500Z 23001KT 0800 R05/0200V0275 R09/P2000D FG FEW010 08/08 Q1028

Time: 06:22 (05:22 UTC)

Forecast

The report was made 6 hours and 22 minutes ago, at 23:00 UTC
Forecast valid from 29 at 00 UTC to 29 at 24 UTC
Wind 2 kt from variable directions
Visibility 10 km or more
Few clouds at a height of 2000 ft
Probability 30% :
Temporary
from 29 at 00 UTC to 29 at 06 UTC
Visibility: 3000 m
Broken clouds at a height of 1500 ft
mist
Becoming
from 29 at 12 UTC to 29 at 15 UTC
Wind 10 kt from the Northeast

TAF: DAAG 282300Z 2900/2924 VRB02KT 9999 FEW020 PROB30 TEMPO 2900/2906 3000 BR BKN015 BECMG 2912/2915 04010KT

Weather observations and forecasts of more than 4000 airports (METAR and TAF reports).

The available stations are represented by yellow and red dots on the map.

Hover mouse over dot to see the name of the station.

Then click to see weather observations and forecasts.

To change the map : click on the green buttons with a black cross to zoom in, on the green button with a dash to zoom out, or on the green arrows for adjacent maps.


METAR-TAF: